sensor_id;sensor_type;location;lat;lon;timestamp;P1;durP1;ratioP1;P2;durP2;ratioP2
3819;SDS011;1925;51.356;9.530;2022-09-21T00:00:23;1.60;;;1.48;;
3819;SDS011;1925;51.356;9.530;2022-09-21T00:02:50;11.20;;;2.50;;
3819;SDS011;1925;51.356;9.530;2022-09-21T00:05:16;6.72;;;3.20;;
3819;SDS011;1925;51.356;9.530;2022-09-21T00:07:42;8.82;;;3.10;;
3819;SDS011;1925;51.356;9.530;2022-09-21T00:10:08;5.35;;;2.45;;
3819;SDS011;1925;51.356;9.530;2022-09-21T00:12:34;5.93;;;3.45;;
3819;SDS011;1925;51.356;9.530;2022-09-21T00:15:03;3.50;;;2.20;;
3819;SDS011;1925;51.356;9.530;2022-09-21T00:17:30;5.07;;;2.08;;
3819;SDS011;1925;51.356;9.530;2022-09-21T00:19:56;3.27;;;2.43;;
3819;SDS011;1925;51.356;9.530;2022-09-21T00:22:22;9.63;;;2.00;;
3819;SDS011;1925;51.356;9.530;2022-09-21T00:24:48;4.37;;;1.80;;
3819;SDS011;1925;51.356;9.530;2022-09-21T00:27:13;7.80;;;1.83;;
3819;SDS011;1925;51.356;9.530;2022-09-21T00:29:39;5.18;;;2.40;;
3819;SDS011;1925;51.356;9.530;2022-09-21T00:32:05;20.80;;;2.97;;
3819;SDS011;1925;51.356;9.530;2022-09-21T00:34:31;3.17;;;1.70;;
3819;SDS011;1925;51.356;9.530;2022-09-21T00:36:57;6.40;;;2.30;;
3819;SDS011;1925;51.356;9.530;2022-09-21T00:39:23;1.90;;;1.50;;
3819;SDS011;1925;51.356;9.530;2022-09-21T00:41:49;6.30;;;2.00;;
3819;SDS011;1925;51.356;9.530;2022-09-21T00:44:24;13.60;;;2.30;;
3819;SDS011;1925;51.356;9.530;2022-09-21T00:46:53;1.38;;;1.25;;
3819;SDS011;1925;51.356;9.530;2022-09-21T00:49:20;3.22;;;1.20;;
3819;SDS011;1925;51.356;9.530;2022-09-21T00:51:46;2.88;;;1.45;;
3819;SDS011;1925;51.356;9.530;2022-09-21T00:54:17;2.60;;;1.90;;
3819;SDS011;1925;51.356;9.530;2022-09-21T00:56:44;2.80;;;1.48;;
3819;SDS011;1925;51.356;9.530;2022-09-21T00:59:11;2.00;;;1.60;;
3819;SDS011;1925;51.356;9.530;2022-09-21T01:01:37;2.65;;;1.85;;
3819;SDS011;1925;51.356;9.530;2022-09-21T01:04:04;4.35;;;2.00;;
3819;SDS011;1925;51.356;9.530;2022-09-21T01:06:31;1.92;;;1.50;;
3819;SDS011;1925;51.356;9.530;2022-09-21T01:08:58;7.07;;;2.55;;
3819;SDS011;1925;51.356;9.530;2022-09-21T01:11:32;3.08;;;2.08;;
3819;SDS011;1925;51.356;9.530;2022-09-21T01:16:48;2.88;;;2.40;;
3819;SDS011;1925;51.356;9.530;2022-09-21T01:19:56;8.38;;;2.60;;
3819;SDS011;1925;51.356;9.530;2022-09-21T01:29:59;2.28;;;1.95;;
3819;SDS011;1925;51.356;9.530;2022-09-21T01:32:28;2.65;;;2.08;;
3819;SDS011;1925;51.356;9.530;2022-09-21T01:37:46;9.18;;;2.00;;
3819;SDS011;1925;51.356;9.530;2022-09-21T01:40:16;4.53;;;2.55;;
3819;SDS011;1925;51.356;9.530;2022-09-21T01:42:43;2.20;;;1.92;;
3819;SDS011;1925;51.356;9.530;2022-09-21T01:45:10;10.98;;;2.40;;
3819;SDS011;1925;51.356;9.530;2022-09-21T01:47:41;5.95;;;2.45;;
3819;SDS011;1925;51.356;9.530;2022-09-21T01:50:08;4.60;;;2.03;;
3819;SDS011;1925;51.356;9.530;2022-09-21T01:52:36;2.67;;;1.98;;
3819;SDS011;1925;51.356;9.530;2022-09-21T01:55:15;3.05;;;2.28;;
3819;SDS011;1925;51.356;9.530;2022-09-21T01:57:44;2.42;;;2.00;;
3819;SDS011;1925;51.356;9.530;2022-09-21T02:00:14;6.78;;;2.35;;
3819;SDS011;1925;51.356;9.530;2022-09-21T02:05:06;2.70;;;1.90;;
3819;SDS011;1925;51.356;9.530;2022-09-21T02:07:33;2.05;;;1.85;;
3819;SDS011;1925;51.356;9.530;2022-09-21T02:09:59;4.63;;;2.28;;
3819;SDS011;1925;51.356;9.530;2022-09-21T02:12:27;4.25;;;2.58;;
3819;SDS011;1925;51.356;9.530;2022-09-21T02:14:54;4.90;;;1.77;;
3819;SDS011;1925;51.356;9.530;2022-09-21T02:25:17;2.83;;;1.75;;
3819;SDS011;1925;51.356;9.530;2022-09-21T02:30:21;2.78;;;1.80;;
3819;SDS011;1925;51.356;9.530;2022-09-21T02:35:37;4.05;;;2.20;;
3819;SDS011;1925;51.356;9.530;2022-09-21T02:38:14;3.28;;;2.17;;
3819;SDS011;1925;51.356;9.530;2022-09-21T02:40:45;7.88;;;2.70;;
3819;SDS011;1925;51.356;9.530;2022-09-21T02:43:16;28.60;;;3.65;;
3819;SDS011;1925;51.356;9.530;2022-09-21T02:45:47;3.95;;;2.17;;
3819;SDS011;1925;51.356;9.530;2022-09-21T02:48:19;3.45;;;2.35;;
3819;SDS011;1925;51.356;9.530;2022-09-21T02:50:47;5.50;;;2.95;;
3819;SDS011;1925;51.356;9.530;2022-09-21T02:53:17;5.85;;;3.15;;
3819;SDS011;1925;51.356;9.530;2022-09-21T02:55:44;7.60;;;3.17;;
3819;SDS011;1925;51.356;9.530;2022-09-21T02:58:11;15.25;;;4.05;;
3819;SDS011;1925;51.356;9.530;2022-09-21T03:00:38;8.43;;;3.28;;
3819;SDS011;1925;51.356;9.530;2022-09-21T03:03:14;14.40;;;4.40;;
3819;SDS011;1925;51.356;9.530;2022-09-21T03:05:44;10.77;;;2.97;;
3819;SDS011;1925;51.356;9.530;2022-09-21T03:08:11;3.42;;;3.13;;
3819;SDS011;1925;51.356;9.530;2022-09-21T03:10:37;15.20;;;4.13;;
3819;SDS011;1925;51.356;9.530;2022-09-21T03:13:04;3.92;;;3.53;;
3819;SDS011;1925;51.356;9.530;2022-09-21T03:15:30;8.30;;;3.30;;
3819;SDS011;1925;51.356;9.530;2022-09-21T03:17:56;4.10;;;2.90;;
3819;SDS011;1925;51.356;9.530;2022-09-21T03:20:22;20.20;;;3.73;;
3819;SDS011;1925;51.356;9.530;2022-09-21T03:22:49;12.63;;;3.70;;
3819;SDS011;1925;51.356;9.530;2022-09-21T03:25:15;36.40;;;5.10;;
3819;SDS011;1925;51.356;9.530;2022-09-21T03:27:41;4.97;;;3.33;;
3819;SDS011;1925;51.356;9.530;2022-09-21T03:30:07;3.43;;;3.10;;
3819;SDS011;1925;51.356;9.530;2022-09-21T03:32:33;8.32;;;3.70;;
3819;SDS011;1925;51.356;9.530;2022-09-21T03:34:59;6.30;;;3.77;;
3819;SDS011;1925;51.356;9.530;2022-09-21T03:37:25;9.98;;;3.85;;
3819;SDS011;1925;51.356;9.530;2022-09-21T03:39:51;4.97;;;3.80;;
3819;SDS011;1925;51.356;9.530;2022-09-21T03:42:17;12.90;;;4.03;;
3819;SDS011;1925;51.356;9.530;2022-09-21T03:44:43;3.07;;;2.80;;
3819;SDS011;1925;51.356;9.530;2022-09-21T03:47:09;3.90;;;2.80;;
3819;SDS011;1925;51.356;9.530;2022-09-21T03:49:34;3.93;;;3.50;;
3819;SDS011;1925;51.356;9.530;2022-09-21T03:52:01;3.92;;;3.30;;
3819;SDS011;1925;51.356;9.530;2022-09-21T03:54:27;5.03;;;3.70;;
3819;SDS011;1925;51.356;9.530;2022-09-21T03:56:53;8.77;;;3.33;;
3819;SDS011;1925;51.356;9.530;2022-09-21T03:59:19;6.40;;;3.83;;
3819;SDS011;1925;51.356;9.530;2022-09-21T04:01:45;17.53;;;4.70;;
3819;SDS011;1925;51.356;9.530;2022-09-21T04:04:11;6.10;;;3.85;;
3819;SDS011;1925;51.356;9.530;2022-09-21T04:06:37;35.07;;;6.13;;
3819;SDS011;1925;51.356;9.530;2022-09-21T04:09:03;5.53;;;3.05;;
3819;SDS011;1925;51.356;9.530;2022-09-21T04:11:29;4.55;;;3.45;;
3819;SDS011;1925;51.356;9.530;2022-09-21T04:13:57;5.13;;;3.70;;
3819;SDS011;1925;51.356;9.530;2022-09-21T04:16:23;4.97;;;4.00;;
3819;SDS011;1925;51.356;9.530;2022-09-21T04:18:50;16.08;;;4.43;;
3819;SDS011;1925;51.356;9.530;2022-09-21T04:21:16;7.70;;;4.05;;
3819;SDS011;1925;51.356;9.530;2022-09-21T04:23:42;4.57;;;4.18;;
3819;SDS011;1925;51.356;9.530;2022-09-21T04:26:27;11.77;;;3.80;;
3819;SDS011;1925;51.356;9.530;2022-09-21T04:28:54;17.30;;;3.42;;
3819;SDS011;1925;51.356;9.530;2022-09-21T04:31:20;7.75;;;4.07;;
3819;SDS011;1925;51.356;9.530;2022-09-21T04:33:47;7.97;;;3.53;;
3819;SDS011;1925;51.356;9.530;2022-09-21T04:36:13;3.60;;;3.20;;
3819;SDS011;1925;51.356;9.530;2022-09-21T04:38:39;17.80;;;4.82;;
3819;SDS011;1925;51.356;9.530;2022-09-21T04:41:05;45.40;;;6.50;;
3819;SDS011;1925;51.356;9.530;2022-09-21T04:43:31;8.13;;;4.03;;
3819;SDS011;1925;51.356;9.530;2022-09-21T04:45:57;3.97;;;3.10;;
3819;SDS011;1925;51.356;9.530;2022-09-21T04:48:23;6.10;;;4.20;;
3819;SDS011;1925;51.356;9.530;2022-09-21T04:50:49;4.57;;;4.03;;
3819;SDS011;1925;51.356;9.530;2022-09-21T04:53:16;8.90;;;4.40;;
3819;SDS011;1925;51.356;9.530;2022-09-21T04:55:43;20.10;;;6.50;;
3819;SDS011;1925;51.356;9.530;2022-09-21T04:58:10;5.20;;;4.05;;
3819;SDS011;1925;51.356;9.530;2022-09-21T05:00:36;7.33;;;5.50;;
3819;SDS011;1925;51.356;9.530;2022-09-21T05:03:02;6.50;;;5.10;;
3819;SDS011;1925;51.356;9.530;2022-09-21T05:05:28;5.37;;;4.60;;
3819;SDS011;1925;51.356;9.530;2022-09-21T05:07:54;6.03;;;4.33;;
3819;SDS011;1925;51.356;9.530;2022-09-21T05:10:20;4.40;;;3.73;;
3819;SDS011;1925;51.356;9.530;2022-09-21T05:12:46;5.38;;;4.20;;
3819;SDS011;1925;51.356;9.530;2022-09-21T05:15:12;5.20;;;4.70;;
3819;SDS011;1925;51.356;9.530;2022-09-21T05:17:39;5.10;;;4.00;;
3819;SDS011;1925;51.356;9.530;2022-09-21T05:20:05;6.50;;;4.80;;
3819;SDS011;1925;51.356;9.530;2022-09-21T05:22:31;7.57;;;4.10;;
3819;SDS011;1925;51.356;9.530;2022-09-21T05:24:57;4.95;;;4.53;;
3819;SDS011;1925;51.356;9.530;2022-09-21T05:27:23;6.43;;;4.70;;
3819;SDS011;1925;51.356;9.530;2022-09-21T05:29:49;5.60;;;4.30;;
3819;SDS011;1925;51.356;9.530;2022-09-21T05:38:06;5.68;;;4.68;;
3819;SDS011;1925;51.356;9.530;2022-09-21T05:40:33;6.82;;;4.43;;
3819;SDS011;1925;51.356;9.530;2022-09-21T05:42:59;6.47;;;4.40;;
3819;SDS011;1925;51.356;9.530;2022-09-21T05:45:25;4.85;;;4.35;;
3819;SDS011;1925;51.356;9.530;2022-09-21T05:53:07;7.60;;;4.72;;
3819;SDS011;1925;51.356;9.530;2022-09-21T05:55:42;5.60;;;4.80;;
3819;SDS011;1925;51.356;9.530;2022-09-21T05:58:20;4.90;;;4.47;;
3819;SDS011;1925;51.356;9.530;2022-09-21T06:03:26;7.90;;;4.05;;
3819;SDS011;1925;51.356;9.530;2022-09-21T06:05:56;8.65;;;4.68;;
3819;SDS011;1925;51.356;9.530;2022-09-21T06:08:23;5.75;;;4.28;;
3819;SDS011;1925;51.356;9.530;2022-09-21T06:10:49;10.13;;;5.88;;
3819;SDS011;1925;51.356;9.530;2022-09-21T06:13:15;11.07;;;4.63;;
3819;SDS011;1925;51.356;9.530;2022-09-21T06:15:41;10.27;;;5.57;;
3819;SDS011;1925;51.356;9.530;2022-09-21T06:18:07;11.18;;;4.65;;
3819;SDS011;1925;51.356;9.530;2022-09-21T06:20:34;5.20;;;4.70;;
3819;SDS011;1925;51.356;9.530;2022-09-21T06:23:00;8.70;;;5.13;;
3819;SDS011;1925;51.356;9.530;2022-09-21T06:25:27;7.28;;;4.28;;
3819;SDS011;1925;51.356;9.530;2022-09-21T06:27:52;6.77;;;4.53;;
3819;SDS011;1925;51.356;9.530;2022-09-21T06:30:18;8.23;;;5.20;;
3819;SDS011;1925;51.356;9.530;2022-09-21T06:32:44;7.80;;;5.60;;
3819;SDS011;1925;51.356;9.530;2022-09-21T06:35:10;4.90;;;4.50;;
3819;SDS011;1925;51.356;9.530;2022-09-21T06:37:36;6.33;;;4.37;;
3819;SDS011;1925;51.356;9.530;2022-09-21T06:40:04;7.13;;;4.53;;
3819;SDS011;1925;51.356;9.530;2022-09-21T06:42:31;11.07;;;4.88;;
3819;SDS011;1925;51.356;9.530;2022-09-21T06:44:57;12.53;;;4.90;;
3819;SDS011;1925;51.356;9.530;2022-09-21T06:47:23;25.73;;;7.23;;
3819;SDS011;1925;51.356;9.530;2022-09-21T06:49:48;8.67;;;5.50;;
3819;SDS011;1925;51.356;9.530;2022-09-21T06:52:14;8.80;;;5.93;;
3819;SDS011;1925;51.356;9.530;2022-09-21T06:54:41;11.55;;;6.55;;
3819;SDS011;1925;51.356;9.530;2022-09-21T06:57:07;10.15;;;5.43;;
3819;SDS011;1925;51.356;9.530;2022-09-21T06:59:33;23.48;;;7.20;;
3819;SDS011;1925;51.356;9.530;2022-09-21T07:01:58;8.07;;;4.70;;
3819;SDS011;1925;51.356;9.530;2022-09-21T07:04:24;5.67;;;4.83;;
3819;SDS011;1925;51.356;9.530;2022-09-21T07:06:52;24.90;;;6.90;;
3819;SDS011;1925;51.356;9.530;2022-09-21T07:09:18;37.65;;;7.63;;
3819;SDS011;1925;51.356;9.530;2022-09-21T07:11:44;18.53;;;6.50;;
3819;SDS011;1925;51.356;9.530;2022-09-21T07:14:10;9.95;;;5.90;;
3819;SDS011;1925;51.356;9.530;2022-09-21T07:16:36;6.97;;;5.63;;
3819;SDS011;1925;51.356;9.530;2022-09-21T07:19:02;7.25;;;5.55;;
3819;SDS011;1925;51.356;9.530;2022-09-21T07:21:29;15.88;;;6.10;;
3819;SDS011;1925;51.356;9.530;2022-09-21T07:23:57;22.10;;;7.27;;
3819;SDS011;1925;51.356;9.530;2022-09-21T07:26:24;17.33;;;6.88;;
3819;SDS011;1925;51.356;9.530;2022-09-21T07:28:49;7.53;;;5.70;;
3819;SDS011;1925;51.356;9.530;2022-09-21T07:31:16;15.20;;;7.40;;
3819;SDS011;1925;51.356;9.530;2022-09-21T07:33:42;8.75;;;7.65;;
3819;SDS011;1925;51.356;9.530;2022-09-21T07:36:10;13.55;;;7.10;;
3819;SDS011;1925;51.356;9.530;2022-09-21T07:38:37;19.27;;;8.18;;
3819;SDS011;1925;51.356;9.530;2022-09-21T07:41:06;9.20;;;6.80;;
3819;SDS011;1925;51.356;9.530;2022-09-21T07:43:32;60.97;;;11.65;;
3819;SDS011;1925;51.356;9.530;2022-09-21T07:45:59;9.73;;;7.30;;
3819;SDS011;1925;51.356;9.530;2022-09-21T07:48:28;15.52;;;8.10;;
3819;SDS011;1925;51.356;9.530;2022-09-21T07:50:59;15.68;;;9.30;;
3819;SDS011;1925;51.356;9.530;2022-09-21T07:53:25;41.50;;;10.70;;
3819;SDS011;1925;51.356;9.530;2022-09-21T07:55:51;40.03;;;10.03;;
3819;SDS011;1925;51.356;9.530;2022-09-21T07:58:17;14.10;;;7.70;;
3819;SDS011;1925;51.356;9.530;2022-09-21T08:01:05;15.55;;;10.35;;
3819;SDS011;1925;51.356;9.530;2022-09-21T08:03:31;9.50;;;7.30;;
3819;SDS011;1925;51.356;9.530;2022-09-21T08:05:57;15.25;;;9.75;;
3819;SDS011;1925;51.356;9.530;2022-09-21T08:08:24;12.70;;;9.70;;
3819;SDS011;1925;51.356;9.530;2022-09-21T08:10:50;9.30;;;8.30;;
3819;SDS011;1925;51.356;9.530;2022-09-21T08:13:17;10.52;;;9.40;;
3819;SDS011;1925;51.356;9.530;2022-09-21T08:15:43;10.10;;;7.73;;
3819;SDS011;1925;51.356;9.530;2022-09-21T08:18:09;12.27;;;9.43;;
3819;SDS011;1925;51.356;9.530;2022-09-21T08:20:35;11.25;;;8.95;;
3819;SDS011;1925;51.356;9.530;2022-09-21T08:23:01;10.37;;;8.33;;
3819;SDS011;1925;51.356;9.530;2022-09-21T08:25:27;10.27;;;9.27;;
3819;SDS011;1925;51.356;9.530;2022-09-21T08:27:57;12.48;;;9.52;;
3819;SDS011;1925;51.356;9.530;2022-09-21T08:30:24;11.32;;;8.63;;
3819;SDS011;1925;51.356;9.530;2022-09-21T08:32:53;10.20;;;9.10;;
3819;SDS011;1925;51.356;9.530;2022-09-21T08:35:19;16.88;;;10.75;;
3819;SDS011;1925;51.356;9.530;2022-09-21T08:37:45;11.67;;;9.17;;
3819;SDS011;1925;51.356;9.530;2022-09-21T08:40:11;11.15;;;9.15;;
3819;SDS011;1925;51.356;9.530;2022-09-21T08:42:46;13.95;;;10.57;;
3819;SDS011;1925;51.356;9.530;2022-09-21T08:45:15;14.02;;;9.43;;
3819;SDS011;1925;51.356;9.530;2022-09-21T08:52:48;13.95;;;10.50;;
3819;SDS011;1925;51.356;9.530;2022-09-21T08:55:15;15.85;;;12.40;;
3819;SDS011;1925;51.356;9.530;2022-09-21T08:57:42;12.70;;;10.45;;
3819;SDS011;1925;51.356;9.530;2022-09-21T09:00:15;15.50;;;11.23;;
3819;SDS011;1925;51.356;9.530;2022-09-21T09:07:59;16.92;;;12.05;;
3819;SDS011;1925;51.356;9.530;2022-09-21T09:15:46;16.08;;;13.13;;
3819;SDS011;1925;51.356;9.530;2022-09-21T09:20:43;15.95;;;12.82;;
3819;SDS011;1925;51.356;9.530;2022-09-21T09:23:18;16.10;;;11.98;;
3819;SDS011;1925;51.356;9.530;2022-09-21T09:25:45;14.63;;;12.02;;
3819;SDS011;1925;51.356;9.530;2022-09-21T09:28:32;14.70;;;11.63;;
3819;SDS011;1925;51.356;9.530;2022-09-21T09:31:03;15.98;;;12.50;;
3819;SDS011;1925;51.356;9.530;2022-09-21T09:33:34;14.80;;;11.55;;
3819;SDS011;1925;51.356;9.530;2022-09-21T09:36:05;14.70;;;11.25;;
3819;SDS011;1925;51.356;9.530;2022-09-21T09:38:38;17.92;;;12.55;;
3819;SDS011;1925;51.356;9.530;2022-09-21T09:41:20;18.77;;;13.25;;
3819;SDS011;1925;51.356;9.530;2022-09-21T09:43:52;16.80;;;14.05;;
3819;SDS011;1925;51.356;9.530;2022-09-21T09:51:40;19.40;;;12.38;;
3819;SDS011;1925;51.356;9.530;2022-09-21T09:54:11;17.73;;;13.95;;
3819;SDS011;1925;51.356;9.530;2022-09-21T09:56:38;15.75;;;12.70;;
3819;SDS011;1925;51.356;9.530;2022-09-21T09:59:04;18.60;;;13.43;;
3819;SDS011;1925;51.356;9.530;2022-09-21T10:01:44;16.52;;;13.45;;
3819;SDS011;1925;51.356;9.530;2022-09-21T10:04:15;20.33;;;14.73;;
3819;SDS011;1925;51.356;9.530;2022-09-21T10:06:42;22.25;;;15.43;;
3819;SDS011;1925;51.356;9.530;2022-09-21T10:11:44;16.63;;;13.00;;
3819;SDS011;1925;51.356;9.530;2022-09-21T10:14:13;13.90;;;12.07;;
3819;SDS011;1925;51.356;9.530;2022-09-21T10:16:41;14.82;;;12.57;;
3819;SDS011;1925;51.356;9.530;2022-09-21T10:19:15;16.05;;;13.07;;
3819;SDS011;1925;51.356;9.530;2022-09-21T10:21:42;13.93;;;12.02;;
3819;SDS011;1925;51.356;9.530;2022-09-21T10:24:15;13.48;;;12.00;;
3819;SDS011;1925;51.356;9.530;2022-09-21T10:26:47;16.83;;;11.98;;
3819;SDS011;1925;51.356;9.530;2022-09-21T10:29:18;15.32;;;12.55;;
3819;SDS011;1925;51.356;9.530;2022-09-21T10:34:21;16.92;;;13.60;;
3819;SDS011;1925;51.356;9.530;2022-09-21T10:36:49;15.02;;;12.65;;
3819;SDS011;1925;51.356;9.530;2022-09-21T10:39:31;15.20;;;12.05;;
3819;SDS011;1925;51.356;9.530;2022-09-21T10:44:28;15.82;;;8.80;;
3819;SDS011;1925;51.356;9.530;2022-09-21T10:46:54;11.33;;;9.80;;
3819;SDS011;1925;51.356;9.530;2022-09-21T10:49:22;12.30;;;10.67;;
3819;SDS011;1925;51.356;9.530;2022-09-21T10:51:50;20.03;;;10.30;;
3819;SDS011;1925;51.356;9.530;2022-09-21T10:54:21;13.53;;;9.93;;
3819;SDS011;1925;51.356;9.530;2022-09-21T10:56:55;14.00;;;9.97;;
3819;SDS011;1925;51.356;9.530;2022-09-21T10:59:26;15.70;;;9.53;;
3819;SDS011;1925;51.356;9.530;2022-09-21T11:01:54;9.10;;;6.60;;
3819;SDS011;1925;51.356;9.530;2022-09-21T11:09:57;12.50;;;3.83;;
3819;SDS011;1925;51.356;9.530;2022-09-21T11:12:34;7.87;;;4.70;;
3819;SDS011;1925;51.356;9.530;2022-09-21T11:20:46;11.83;;;4.60;;
3819;SDS011;1925;51.356;9.530;2022-09-21T11:25:49;6.30;;;3.50;;
3819;SDS011;1925;51.356;9.530;2022-09-21T11:28:19;9.20;;;2.93;;
3819;SDS011;1925;51.356;9.530;2022-09-21T11:33:38;5.97;;;3.20;;
3819;SDS011;1925;51.356;9.530;2022-09-21T11:41:17;9.07;;;2.03;;
3819;SDS011;1925;51.356;9.530;2022-09-21T11:46:26;4.53;;;2.17;;
3819;SDS011;1925;51.356;9.530;2022-09-21T11:51:44;4.60;;;1.70;;
3819;SDS011;1925;51.356;9.530;2022-09-21T11:54:42;3.00;;;1.47;;
3819;SDS011;1925;51.356;9.530;2022-09-21T12:05:21;3.97;;;2.20;;
3819;SDS011;1925;51.356;9.530;2022-09-21T12:13:07;9.30;;;1.63;;
3819;SDS011;1925;51.356;9.530;2022-09-21T12:18:53;6.30;;;2.20;;
3819;SDS011;1925;51.356;9.530;2022-09-21T12:21:11;4.23;;;1.37;;
3819;SDS011;1925;51.356;9.530;2022-09-21T12:26:04;2.50;;;1.40;;
3819;SDS011;1925;51.356;9.530;2022-09-21T12:28:41;3.60;;;1.33;;
3819;SDS011;1925;51.356;9.530;2022-09-21T12:36:24;3.53;;;0.97;;
3819;SDS011;1925;51.356;9.530;2022-09-21T12:38:56;3.93;;;1.33;;
3819;SDS011;1925;51.356;9.530;2022-09-21T12:49:14;2.27;;;1.47;;
3819;SDS011;1925;51.356;9.530;2022-09-21T12:51:41;1.53;;;1.00;;
3819;SDS011;1925;51.356;9.530;2022-09-21T12:54:52;1.60;;;0.80;;
3819;SDS011;1925;51.356;9.530;2022-09-21T12:57:11;6.03;;;1.20;;
3819;SDS011;1925;51.356;9.530;2022-09-21T13:09:46;2.30;;;0.90;;
3819;SDS011;1925;51.356;9.530;2022-09-21T13:14:42;9.90;;;1.67;;
3819;SDS011;1925;51.356;9.530;2022-09-21T13:17:14;4.00;;;1.30;;
3819;SDS011;1925;51.356;9.530;2022-09-21T13:19:42;2.30;;;1.00;;
3819;SDS011;1925;51.356;9.530;2022-09-21T13:22:12;1.40;;;0.83;;
3819;SDS011;1925;51.356;9.530;2022-09-21T13:24:43;4.37;;;1.07;;
3819;SDS011;1925;51.356;9.530;2022-09-21T13:27:09;3.57;;;0.80;;
3819;SDS011;1925;51.356;9.530;2022-09-21T13:29:36;5.23;;;1.40;;
3819;SDS011;1925;51.356;9.530;2022-09-21T13:34:39;1.67;;;1.20;;
3819;SDS011;1925;51.356;9.530;2022-09-21T13:44:58;4.87;;;1.00;;
3819;SDS011;1925;51.356;9.530;2022-09-21T13:47:34;2.53;;;0.93;;
3819;SDS011;1925;51.356;9.530;2022-09-21T13:50:01;4.10;;;1.10;;
3819;SDS011;1925;51.356;9.530;2022-09-21T13:52:56;2.97;;;1.07;;
3819;SDS011;1925;51.356;9.530;2022-09-21T13:55:28;3.70;;;1.33;;
3819;SDS011;1925;51.356;9.530;2022-09-21T13:57:55;2.20;;;0.90;;
3819;SDS011;1925;51.356;9.530;2022-09-21T14:00:33;3.33;;;1.07;;
3819;SDS011;1925;51.356;9.530;2022-09-21T14:03:01;1.93;;;1.00;;
3819;SDS011;1925;51.356;9.530;2022-09-21T14:05:38;1.50;;;1.13;;
3819;SDS011;1925;51.356;9.530;2022-09-21T14:13:43;3.57;;;1.33;;
3819;SDS011;1925;51.356;9.530;2022-09-21T14:18:57;4.10;;;1.10;;
3819;SDS011;1925;51.356;9.530;2022-09-21T14:21:24;2.60;;;0.83;;
3819;SDS011;1925;51.356;9.530;2022-09-21T14:29:07;2.47;;;1.00;;
3819;SDS011;1925;51.356;9.530;2022-09-21T14:31:37;2.93;;;0.70;;
3819;SDS011;1925;51.356;9.530;2022-09-21T14:34:03;3.43;;;0.97;;
3819;SDS011;1925;51.356;9.530;2022-09-21T14:36:36;2.03;;;0.97;;
3819;SDS011;1925;51.356;9.530;2022-09-21T14:39:06;4.20;;;0.90;;
3819;SDS011;1925;51.356;9.530;2022-09-21T14:41:40;1.57;;;0.60;;
3819;SDS011;1925;51.356;9.530;2022-09-21T14:44:06;3.57;;;1.47;;
3819;SDS011;1925;51.356;9.530;2022-09-21T14:51:55;2.00;;;1.30;;
3819;SDS011;1925;51.356;9.530;2022-09-21T15:02:26;2.87;;;0.70;;
3819;SDS011;1925;51.356;9.530;2022-09-21T15:07:46;2.07;;;1.03;;
3819;SDS011;1925;51.356;9.530;2022-09-21T15:13:28;2.47;;;0.90;;
3819;SDS011;1925;51.356;9.530;2022-09-21T15:16:16;2.30;;;0.70;;
3819;SDS011;1925;51.356;9.530;2022-09-21T15:18:44;1.70;;;0.80;;
3819;SDS011;1925;51.356;9.530;2022-09-21T15:21:26;2.50;;;0.87;;
3819;SDS011;1925;51.356;9.530;2022-09-21T15:23:53;1.73;;;0.77;;
3819;SDS011;1925;51.356;9.530;2022-09-21T15:26:23;1.70;;;0.93;;
3819;SDS011;1925;51.356;9.530;2022-09-21T15:28:53;2.20;;;1.27;;
3819;SDS011;1925;51.356;9.530;2022-09-21T15:31:20;0.90;;;0.73;;
3819;SDS011;1925;51.356;9.530;2022-09-21T15:33:46;3.20;;;0.90;;
3819;SDS011;1925;51.356;9.530;2022-09-21T15:36:21;2.43;;;1.20;;
3819;SDS011;1925;51.356;9.530;2022-09-21T15:38:49;3.13;;;0.90;;
3819;SDS011;1925;51.356;9.530;2022-09-21T15:42:00;2.23;;;0.80;;
3819;SDS011;1925;51.356;9.530;2022-09-21T15:44:15;4.90;;;0.80;;
3819;SDS011;1925;51.356;9.530;2022-09-21T15:46:42;5.53;;;0.93;;
3819;SDS011;1925;51.356;9.530;2022-09-21T15:49:12;1.33;;;0.80;;
3819;SDS011;1925;51.356;9.530;2022-09-21T15:51:40;2.87;;;1.10;;
3819;SDS011;1925;51.356;9.530;2022-09-21T15:54:14;1.97;;;0.90;;
3819;SDS011;1925;51.356;9.530;2022-09-21T15:56:43;2.20;;;0.80;;
3819;SDS011;1925;51.356;9.530;2022-09-21T15:59:11;4.23;;;0.93;;
3819;SDS011;1925;51.356;9.530;2022-09-21T16:01:41;2.40;;;1.43;;
3819;SDS011;1925;51.356;9.530;2022-09-21T16:04:13;1.60;;;1.47;;
3819;SDS011;1925;51.356;9.530;2022-09-21T16:06:43;2.00;;;1.10;;
3819;SDS011;1925;51.356;9.530;2022-09-21T16:09:52;1.83;;;0.80;;
3819;SDS011;1925;51.356;9.530;2022-09-21T16:11:59;4.00;;;1.10;;
3819;SDS011;1925;51.356;9.530;2022-09-21T16:14:46;2.40;;;1.20;;
3819;SDS011;1925;51.356;9.530;2022-09-21T16:22:36;2.50;;;1.33;;
3819;SDS011;1925;51.356;9.530;2022-09-21T16:25:12;2.27;;;1.67;;
3819;SDS011;1925;51.356;9.530;2022-09-21T16:27:47;3.33;;;1.87;;
3819;SDS011;1925;51.356;9.530;2022-09-21T16:30:36;1.47;;;1.10;;
3819;SDS011;1925;51.356;9.530;2022-09-21T16:33:00;4.07;;;1.50;;
3819;SDS011;1925;51.356;9.530;2022-09-21T16:35:26;3.20;;;1.20;;
3819;SDS011;1925;51.356;9.530;2022-09-21T16:37:53;3.47;;;1.20;;
3819;SDS011;1925;51.356;9.530;2022-09-21T16:40:22;9.30;;;2.50;;
3819;SDS011;1925;51.356;9.530;2022-09-21T16:42:48;4.63;;;1.23;;
3819;SDS011;1925;51.356;9.530;2022-09-21T16:45:21;6.87;;;1.37;;
3819;SDS011;1925;51.356;9.530;2022-09-21T16:47:48;2.00;;;0.90;;
3819;SDS011;1925;51.356;9.530;2022-09-21T16:50:14;2.10;;;0.90;;
3819;SDS011;1925;51.356;9.530;2022-09-21T16:52:42;4.77;;;1.40;;
3819;SDS011;1925;51.356;9.530;2022-09-21T16:55:12;2.20;;;1.07;;
3819;SDS011;1925;51.356;9.530;2022-09-21T16:57:39;8.43;;;1.40;;
3819;SDS011;1925;51.356;9.530;2022-09-21T17:00:18;1.80;;;0.80;;
3819;SDS011;1925;51.356;9.530;2022-09-21T17:02:44;1.60;;;0.90;;
3819;SDS011;1925;51.356;9.530;2022-09-21T17:05:10;2.33;;;0.90;;
3819;SDS011;1925;51.356;9.530;2022-09-21T17:08:02;2.60;;;1.17;;
3819;SDS011;1925;51.356;9.530;2022-09-21T17:10:30;4.00;;;1.00;;
3819;SDS011;1925;51.356;9.530;2022-09-21T17:12:56;3.37;;;1.07;;
3819;SDS011;1925;51.356;9.530;2022-09-21T17:15:23;3.00;;;1.10;;
3819;SDS011;1925;51.356;9.530;2022-09-21T17:17:49;4.13;;;1.00;;
3819;SDS011;1925;51.356;9.530;2022-09-21T17:20:18;10.10;;;1.40;;
3819;SDS011;1925;51.356;9.530;2022-09-21T17:22:45;2.23;;;1.47;;
3819;SDS011;1925;51.356;9.530;2022-09-21T17:25:11;4.70;;;1.20;;
3819;SDS011;1925;51.356;9.530;2022-09-21T17:27:37;2.10;;;1.10;;
3819;SDS011;1925;51.356;9.530;2022-09-21T17:30:09;2.57;;;1.40;;
3819;SDS011;1925;51.356;9.530;2022-09-21T17:32:36;4.97;;;1.43;;
3819;SDS011;1925;51.356;9.530;2022-09-21T17:37:35;2.40;;;1.00;;
3819;SDS011;1925;51.356;9.530;2022-09-21T17:40:02;2.53;;;1.43;;
3819;SDS011;1925;51.356;9.530;2022-09-21T17:42:28;1.87;;;1.10;;
3819;SDS011;1925;51.356;9.530;2022-09-21T17:47:24;4.23;;;1.20;;
3819;SDS011;1925;51.356;9.530;2022-09-21T17:52:37;2.33;;;1.47;;
3819;SDS011;1925;51.356;9.530;2022-09-21T17:55:23;2.50;;;1.33;;
3819;SDS011;1925;51.356;9.530;2022-09-21T17:57:50;2.60;;;1.20;;
3819;SDS011;1925;51.356;9.530;2022-09-21T18:00:25;2.87;;;1.53;;
3819;SDS011;1925;51.356;9.530;2022-09-21T18:02:52;1.93;;;1.10;;
3819;SDS011;1925;51.356;9.530;2022-09-21T18:05:20;3.67;;;1.33;;
3819;SDS011;1925;51.356;9.530;2022-09-21T18:07:48;1.60;;;1.17;;
3819;SDS011;1925;51.356;9.530;2022-09-21T18:10:15;5.43;;;1.90;;
3819;SDS011;1925;51.356;9.530;2022-09-21T18:15:34;2.50;;;0.90;;
3819;SDS011;1925;51.356;9.530;2022-09-21T18:18:11;1.77;;;1.20;;
3819;SDS011;1925;51.356;9.530;2022-09-21T18:20:56;2.80;;;1.13;;
3819;SDS011;1925;51.356;9.530;2022-09-21T18:25:53;6.40;;;2.00;;
3819;SDS011;1925;51.356;9.530;2022-09-21T18:28:22;2.95;;;1.42;;
3819;SDS011;1925;51.356;9.530;2022-09-21T18:31:34;2.47;;;1.25;;
3819;SDS011;1925;51.356;9.530;2022-09-21T18:33:47;5.03;;;1.60;;
3819;SDS011;1925;51.356;9.530;2022-09-21T18:36:17;2.47;;;1.30;;
3819;SDS011;1925;51.356;9.530;2022-09-21T18:38:49;2.27;;;1.40;;
3819;SDS011;1925;51.356;9.530;2022-09-21T18:41:22;4.73;;;1.90;;
3819;SDS011;1925;51.356;9.530;2022-09-21T18:46:26;3.88;;;1.60;;
3819;SDS011;1925;51.356;9.530;2022-09-21T18:53:50;3.97;;;1.10;;
3819;SDS011;1925;51.356;9.530;2022-09-21T18:56:26;4.63;;;2.40;;